sensor_id;sensor_type;location;lat;lon;timestamp;P1;durP1;ratioP1;P2;durP2;ratioP2
21601;SDS011;10963;50.934;4.668;2023-03-01T00:01:06;25.67;;;14.27;;
21601;SDS011;10963;50.934;4.668;2023-03-01T00:03:33;26.57;;;13.40;;
21601;SDS011;10963;50.934;4.668;2023-03-01T00:06:00;23.33;;;13.50;;
21601;SDS011;10963;50.934;4.668;2023-03-01T00:08:26;28.47;;;13.53;;
21601;SDS011;10963;50.934;4.668;2023-03-01T00:11:02;23.60;;;13.80;;
21601;SDS011;10963;50.934;4.668;2023-03-01T00:13:29;24.27;;;13.50;;
21601;SDS011;10963;50.934;4.668;2023-03-01T00:15:57;25.83;;;13.83;;
21601;SDS011;10963;50.934;4.668;2023-03-01T00:18:23;21.30;;;12.90;;
21601;SDS011;10963;50.934;4.668;2023-03-01T00:20:52;24.57;;;14.37;;
21601;SDS011;10963;50.934;4.668;2023-03-01T00:23:19;25.10;;;13.70;;
21601;SDS011;10963;50.934;4.668;2023-03-01T00:25:45;25.57;;;13.50;;
21601;SDS011;10963;50.934;4.668;2023-03-01T00:28:14;27.63;;;14.70;;
21601;SDS011;10963;50.934;4.668;2023-03-01T00:30:39;20.07;;;13.10;;
21601;SDS011;10963;50.934;4.668;2023-03-01T00:33:08;23.87;;;13.53;;
21601;SDS011;10963;50.934;4.668;2023-03-01T00:35:33;23.60;;;12.80;;
21601;SDS011;10963;50.934;4.668;2023-03-01T00:38:00;26.27;;;14.30;;
21601;SDS011;10963;50.934;4.668;2023-03-01T00:40:26;27.67;;;15.87;;
21601;SDS011;10963;50.934;4.668;2023-03-01T00:42:53;24.50;;;14.80;;
21601;SDS011;10963;50.934;4.668;2023-03-01T00:45:19;28.63;;;15.70;;
21601;SDS011;10963;50.934;4.668;2023-03-01T00:47:45;32.50;;;16.17;;
21601;SDS011;10963;50.934;4.668;2023-03-01T00:50:13;28.77;;;14.73;;
21601;SDS011;10963;50.934;4.668;2023-03-01T00:52:39;27.63;;;15.17;;
21601;SDS011;10963;50.934;4.668;2023-03-01T00:55:07;22.33;;;14.47;;
21601;SDS011;10963;50.934;4.668;2023-03-01T00:57:33;25.43;;;14.80;;
21601;SDS011;10963;50.934;4.668;2023-03-01T01:00:00;23.87;;;14.27;;
21601;SDS011;10963;50.934;4.668;2023-03-01T01:02:26;19.37;;;12.70;;
21601;SDS011;10963;50.934;4.668;2023-03-01T01:04:52;23.53;;;13.30;;
21601;SDS011;10963;50.934;4.668;2023-03-01T01:07:20;24.53;;;14.37;;
21601;SDS011;10963;50.934;4.668;2023-03-01T01:09:46;24.90;;;14.43;;
21601;SDS011;10963;50.934;4.668;2023-03-01T01:12:16;20.90;;;13.00;;
21601;SDS011;10963;50.934;4.668;2023-03-01T01:14:42;25.67;;;14.90;;
21601;SDS011;10963;50.934;4.668;2023-03-01T01:17:08;26.37;;;14.20;;
21601;SDS011;10963;50.934;4.668;2023-03-01T01:19:33;25.63;;;14.57;;
21601;SDS011;10963;50.934;4.668;2023-03-01T01:21:59;24.80;;;13.50;;
21601;SDS011;10963;50.934;4.668;2023-03-01T01:24:29;26.80;;;14.83;;
21601;SDS011;10963;50.934;4.668;2023-03-01T01:26:55;24.50;;;13.90;;
21601;SDS011;10963;50.934;4.668;2023-03-01T01:29:25;25.87;;;14.30;;
21601;SDS011;10963;50.934;4.668;2023-03-01T01:31:51;26.47;;;14.33;;
21601;SDS011;10963;50.934;4.668;2023-03-01T01:34:20;23.40;;;13.53;;
21601;SDS011;10963;50.934;4.668;2023-03-01T01:36:53;24.30;;;14.23;;
21601;SDS011;10963;50.934;4.668;2023-03-01T01:39:21;22.47;;;13.57;;
21601;SDS011;10963;50.934;4.668;2023-03-01T01:41:47;23.73;;;14.57;;
21601;SDS011;10963;50.934;4.668;2023-03-01T01:44:23;21.57;;;13.10;;
21601;SDS011;10963;50.934;4.668;2023-03-01T01:49:24;22.63;;;12.93;;
21601;SDS011;10963;50.934;4.668;2023-03-01T01:57:16;22.40;;;13.37;;
21601;SDS011;10963;50.934;4.668;2023-03-01T01:59:47;26.33;;;13.40;;
21601;SDS011;10963;50.934;4.668;2023-03-01T02:02:23;24.97;;;13.87;;
21601;SDS011;10963;50.934;4.668;2023-03-01T02:04:49;23.53;;;13.57;;
21601;SDS011;10963;50.934;4.668;2023-03-01T02:07:26;27.33;;;14.33;;
21601;SDS011;10963;50.934;4.668;2023-03-01T02:09:55;25.43;;;14.40;;
21601;SDS011;10963;50.934;4.668;2023-03-01T02:12:23;24.97;;;13.77;;
21601;SDS011;10963;50.934;4.668;2023-03-01T02:14:50;22.80;;;13.60;;
21601;SDS011;10963;50.934;4.668;2023-03-01T02:17:16;28.07;;;14.47;;
21601;SDS011;10963;50.934;4.668;2023-03-01T02:30:18;24.37;;;13.83;;
21601;SDS011;10963;50.934;4.668;2023-03-01T02:32:48;25.33;;;14.17;;
21601;SDS011;10963;50.934;4.668;2023-03-01T02:35:18;24.77;;;13.73;;
21601;SDS011;10963;50.934;4.668;2023-03-01T02:37:45;21.20;;;12.23;;
21601;SDS011;10963;50.934;4.668;2023-03-01T02:40:13;24.33;;;13.63;;
21601;SDS011;10963;50.934;4.668;2023-03-01T02:42:47;23.70;;;12.47;;
21601;SDS011;10963;50.934;4.668;2023-03-01T02:45:20;23.73;;;12.27;;
21601;SDS011;10963;50.934;4.668;2023-03-01T02:47:46;22.03;;;13.23;;
21601;SDS011;10963;50.934;4.668;2023-03-01T02:50:19;19.73;;;11.73;;
21601;SDS011;10963;50.934;4.668;2023-03-01T02:55:33;23.93;;;12.30;;
21601;SDS011;10963;50.934;4.668;2023-03-01T02:58:02;20.50;;;12.37;;
21601;SDS011;10963;50.934;4.668;2023-03-01T03:00:31;23.13;;;12.07;;
21601;SDS011;10963;50.934;4.668;2023-03-01T03:03:00;21.47;;;11.50;;
21601;SDS011;10963;50.934;4.668;2023-03-01T03:05:30;19.47;;;11.47;;
21601;SDS011;10963;50.934;4.668;2023-03-01T03:07:56;22.93;;;12.80;;
21601;SDS011;10963;50.934;4.668;2023-03-01T03:10:30;24.93;;;13.03;;
21601;SDS011;10963;50.934;4.668;2023-03-01T03:13:02;17.60;;;12.17;;
21601;SDS011;10963;50.934;4.668;2023-03-01T03:15:31;21.20;;;12.83;;
21601;SDS011;10963;50.934;4.668;2023-03-01T03:18:01;22.20;;;11.70;;
21601;SDS011;10963;50.934;4.668;2023-03-01T03:20:28;22.77;;;13.10;;
21601;SDS011;10963;50.934;4.668;2023-03-01T03:22:57;24.47;;;11.87;;
21601;SDS011;10963;50.934;4.668;2023-03-01T03:25:24;22.43;;;12.93;;
21601;SDS011;10963;50.934;4.668;2023-03-01T03:27:51;23.03;;;12.97;;
21601;SDS011;10963;50.934;4.668;2023-03-01T03:30:22;19.67;;;12.70;;
21601;SDS011;10963;50.934;4.668;2023-03-01T03:32:49;21.57;;;12.53;;
21601;SDS011;10963;50.934;4.668;2023-03-01T03:35:20;19.87;;;11.87;;
21601;SDS011;10963;50.934;4.668;2023-03-01T03:37:55;29.20;;;11.73;;
21601;SDS011;10963;50.934;4.668;2023-03-01T03:43:20;19.77;;;11.00;;
21601;SDS011;10963;50.934;4.668;2023-03-01T03:45:48;23.40;;;11.97;;
21601;SDS011;10963;50.934;4.668;2023-03-01T03:48:16;20.93;;;11.33;;
21601;SDS011;10963;50.934;4.668;2023-03-01T03:50:52;22.63;;;11.70;;
21601;SDS011;10963;50.934;4.668;2023-03-01T03:53:22;25.03;;;11.77;;
21601;SDS011;10963;50.934;4.668;2023-03-01T03:55:53;20.23;;;11.10;;
21601;SDS011;10963;50.934;4.668;2023-03-01T03:58:24;22.43;;;11.27;;
21601;SDS011;10963;50.934;4.668;2023-03-01T04:00:52;24.23;;;11.00;;
21601;SDS011;10963;50.934;4.668;2023-03-01T04:03:20;18.80;;;11.13;;
21601;SDS011;10963;50.934;4.668;2023-03-01T04:05:47;21.10;;;10.93;;
21601;SDS011;10963;50.934;4.668;2023-03-01T04:08:15;18.53;;;11.33;;
21601;SDS011;10963;50.934;4.668;2023-03-01T04:10:45;16.53;;;10.43;;
21601;SDS011;10963;50.934;4.668;2023-03-01T04:13:18;19.73;;;11.97;;
21601;SDS011;10963;50.934;4.668;2023-03-01T04:15:49;18.77;;;11.10;;
21601;SDS011;10963;50.934;4.668;2023-03-01T04:18:18;25.70;;;11.73;;
21601;SDS011;10963;50.934;4.668;2023-03-01T04:20:45;18.87;;;11.87;;
21601;SDS011;10963;50.934;4.668;2023-03-01T04:23:13;20.87;;;11.33;;
21601;SDS011;10963;50.934;4.668;2023-03-01T04:25:48;22.03;;;12.27;;
21601;SDS011;10963;50.934;4.668;2023-03-01T04:28:27;20.60;;;11.53;;
21601;SDS011;10963;50.934;4.668;2023-03-01T04:31:17;22.73;;;12.00;;
21601;SDS011;10963;50.934;4.668;2023-03-01T04:33:49;21.60;;;12.03;;
21601;SDS011;10963;50.934;4.668;2023-03-01T04:36:17;21.37;;;11.87;;
21601;SDS011;10963;50.934;4.668;2023-03-01T04:38:44;20.73;;;11.90;;
21601;SDS011;10963;50.934;4.668;2023-03-01T04:41:13;23.87;;;12.13;;
21601;SDS011;10963;50.934;4.668;2023-03-01T04:43:41;21.27;;;11.03;;
21601;SDS011;10963;50.934;4.668;2023-03-01T04:46:08;21.53;;;10.83;;
21601;SDS011;10963;50.934;4.668;2023-03-01T04:48:37;21.87;;;10.43;;
21601;SDS011;10963;50.934;4.668;2023-03-01T04:51:04;19.97;;;11.40;;
21601;SDS011;10963;50.934;4.668;2023-03-01T04:53:31;20.33;;;11.27;;
21601;SDS011;10963;50.934;4.668;2023-03-01T04:55:57;18.43;;;11.00;;
21601;SDS011;10963;50.934;4.668;2023-03-01T04:58:24;18.83;;;11.30;;
21601;SDS011;10963;50.934;4.668;2023-03-01T05:00:51;19.30;;;10.63;;
21601;SDS011;10963;50.934;4.668;2023-03-01T05:03:18;22.90;;;11.67;;
21601;SDS011;10963;50.934;4.668;2023-03-01T05:05:44;21.33;;;10.93;;
21601;SDS011;10963;50.934;4.668;2023-03-01T05:08:13;23.63;;;11.17;;
21601;SDS011;10963;50.934;4.668;2023-03-01T05:10:52;18.43;;;10.67;;
21601;SDS011;10963;50.934;4.668;2023-03-01T05:13:20;23.90;;;11.97;;
21601;SDS011;10963;50.934;4.668;2023-03-01T05:15:47;20.37;;;11.23;;
21601;SDS011;10963;50.934;4.668;2023-03-01T05:18:18;24.27;;;11.63;;
21601;SDS011;10963;50.934;4.668;2023-03-01T05:20:44;20.67;;;11.03;;
21601;SDS011;10963;50.934;4.668;2023-03-01T05:23:12;27.67;;;11.07;;
21601;SDS011;10963;50.934;4.668;2023-03-01T05:25:38;23.27;;;11.97;;
21601;SDS011;10963;50.934;4.668;2023-03-01T05:28:08;23.07;;;11.20;;
21601;SDS011;10963;50.934;4.668;2023-03-01T05:30:37;19.57;;;12.23;;
21601;SDS011;10963;50.934;4.668;2023-03-01T05:33:04;24.77;;;11.70;;
21601;SDS011;10963;50.934;4.668;2023-03-01T05:35:38;23.20;;;11.43;;
21601;SDS011;10963;50.934;4.668;2023-03-01T05:38:10;27.37;;;12.33;;
21601;SDS011;10963;50.934;4.668;2023-03-01T05:40:43;24.00;;;12.20;;
21601;SDS011;10963;50.934;4.668;2023-03-01T05:43:13;21.23;;;11.63;;
21601;SDS011;10963;50.934;4.668;2023-03-01T05:45:40;22.67;;;11.93;;
21601;SDS011;10963;50.934;4.668;2023-03-01T05:48:07;19.27;;;11.37;;
21601;SDS011;10963;50.934;4.668;2023-03-01T05:50:41;32.80;;;12.37;;
21601;SDS011;10963;50.934;4.668;2023-03-01T05:53:12;21.70;;;10.90;;
21601;SDS011;10963;50.934;4.668;2023-03-01T05:55:40;22.73;;;11.27;;
21601;SDS011;10963;50.934;4.668;2023-03-01T05:58:10;24.50;;;11.83;;
21601;SDS011;10963;50.934;4.668;2023-03-01T06:00:39;25.67;;;12.00;;
21601;SDS011;10963;50.934;4.668;2023-03-01T06:03:10;22.70;;;12.63;;
21601;SDS011;10963;50.934;4.668;2023-03-01T06:05:37;24.67;;;12.23;;
21601;SDS011;10963;50.934;4.668;2023-03-01T06:08:04;26.00;;;12.23;;
21601;SDS011;10963;50.934;4.668;2023-03-01T06:10:30;24.37;;;11.93;;
21601;SDS011;10963;50.934;4.668;2023-03-01T06:12:56;19.83;;;11.70;;
21601;SDS011;10963;50.934;4.668;2023-03-01T06:15:24;23.67;;;11.37;;
21601;SDS011;10963;50.934;4.668;2023-03-01T06:17:50;25.63;;;11.27;;
21601;SDS011;10963;50.934;4.668;2023-03-01T06:20:19;25.20;;;12.10;;
21601;SDS011;10963;50.934;4.668;2023-03-01T06:22:46;23.27;;;11.07;;
21601;SDS011;10963;50.934;4.668;2023-03-01T06:25:17;24.37;;;11.97;;
21601;SDS011;10963;50.934;4.668;2023-03-01T06:27:45;26.17;;;11.43;;
21601;SDS011;10963;50.934;4.668;2023-03-01T06:30:12;18.80;;;10.93;;
21601;SDS011;10963;50.934;4.668;2023-03-01T06:32:41;20.87;;;10.83;;
21601;SDS011;10963;50.934;4.668;2023-03-01T06:35:10;18.97;;;11.60;;
21601;SDS011;10963;50.934;4.668;2023-03-01T06:37:39;22.97;;;11.97;;
21601;SDS011;10963;50.934;4.668;2023-03-01T06:40:06;22.00;;;11.67;;
21601;SDS011;10963;50.934;4.668;2023-03-01T06:42:43;31.03;;;11.07;;
21601;SDS011;10963;50.934;4.668;2023-03-01T06:45:17;21.67;;;11.20;;
21601;SDS011;10963;50.934;4.668;2023-03-01T06:47:45;22.57;;;11.23;;
21601;SDS011;10963;50.934;4.668;2023-03-01T06:50:12;21.77;;;12.03;;
21601;SDS011;10963;50.934;4.668;2023-03-01T06:52:38;24.03;;;11.77;;
21601;SDS011;10963;50.934;4.668;2023-03-01T06:55:04;23.57;;;12.00;;
21601;SDS011;10963;50.934;4.668;2023-03-01T06:57:31;22.13;;;12.07;;
21601;SDS011;10963;50.934;4.668;2023-03-01T06:59:59;19.97;;;11.17;;
21601;SDS011;10963;50.934;4.668;2023-03-01T07:02:27;19.70;;;11.00;;
21601;SDS011;10963;50.934;4.668;2023-03-01T07:04:55;21.57;;;11.20;;
21601;SDS011;10963;50.934;4.668;2023-03-01T07:07:21;28.90;;;13.43;;
21601;SDS011;10963;50.934;4.668;2023-03-01T07:09:51;23.67;;;11.60;;
21601;SDS011;10963;50.934;4.668;2023-03-01T07:12:20;26.20;;;12.33;;
21601;SDS011;10963;50.934;4.668;2023-03-01T07:14:48;22.73;;;11.73;;
21601;SDS011;10963;50.934;4.668;2023-03-01T07:17:14;27.70;;;11.80;;
21601;SDS011;10963;50.934;4.668;2023-03-01T07:19:39;26.50;;;12.03;;
21601;SDS011;10963;50.934;4.668;2023-03-01T07:22:05;19.60;;;11.90;;
21601;SDS011;10963;50.934;4.668;2023-03-01T07:24:33;22.13;;;12.10;;
21601;SDS011;10963;50.934;4.668;2023-03-01T07:27:01;20.10;;;11.00;;
21601;SDS011;10963;50.934;4.668;2023-03-01T07:29:27;22.27;;;11.73;;
21601;SDS011;10963;50.934;4.668;2023-03-01T07:31:55;26.60;;;12.83;;
21601;SDS011;10963;50.934;4.668;2023-03-01T07:34:21;24.87;;;12.70;;
21601;SDS011;10963;50.934;4.668;2023-03-01T07:36:46;23.43;;;13.70;;
21601;SDS011;10963;50.934;4.668;2023-03-01T07:39:15;24.10;;;14.20;;
21601;SDS011;10963;50.934;4.668;2023-03-01T07:41:40;26.87;;;14.03;;
21601;SDS011;10963;50.934;4.668;2023-03-01T07:44:07;28.77;;;12.90;;
21601;SDS011;10963;50.934;4.668;2023-03-01T07:46:34;21.80;;;13.03;;
21601;SDS011;10963;50.934;4.668;2023-03-01T07:49:02;27.00;;;13.47;;
21601;SDS011;10963;50.934;4.668;2023-03-01T07:51:32;24.73;;;13.10;;
21601;SDS011;10963;50.934;4.668;2023-03-01T07:53:58;31.03;;;13.83;;
21601;SDS011;10963;50.934;4.668;2023-03-01T07:56:24;29.73;;;14.10;;
21601;SDS011;10963;50.934;4.668;2023-03-01T07:58:49;24.97;;;13.60;;
21601;SDS011;10963;50.934;4.668;2023-03-01T08:01:16;26.67;;;13.10;;
21601;SDS011;10963;50.934;4.668;2023-03-01T08:03:46;24.23;;;13.20;;
21601;SDS011;10963;50.934;4.668;2023-03-01T08:06:16;23.20;;;13.17;;
21601;SDS011;10963;50.934;4.668;2023-03-01T08:08:43;22.90;;;12.57;;
21601;SDS011;10963;50.934;4.668;2023-03-01T08:11:11;29.10;;;13.00;;
21601;SDS011;10963;50.934;4.668;2023-03-01T08:13:41;20.93;;;12.57;;
21601;SDS011;10963;50.934;4.668;2023-03-01T08:16:09;25.23;;;12.73;;
21601;SDS011;10963;50.934;4.668;2023-03-01T08:18:39;25.47;;;13.00;;
21601;SDS011;10963;50.934;4.668;2023-03-01T08:21:06;24.23;;;13.13;;
21601;SDS011;10963;50.934;4.668;2023-03-01T08:23:40;24.73;;;12.57;;
21601;SDS011;10963;50.934;4.668;2023-03-01T08:26:08;24.57;;;13.83;;
21601;SDS011;10963;50.934;4.668;2023-03-01T08:28:39;26.70;;;13.07;;
21601;SDS011;10963;50.934;4.668;2023-03-01T08:33:52;22.90;;;12.00;;
21601;SDS011;10963;50.934;4.668;2023-03-01T08:36:22;21.60;;;12.27;;
21601;SDS011;10963;50.934;4.668;2023-03-01T08:38:49;25.80;;;13.47;;
21601;SDS011;10963;50.934;4.668;2023-03-01T08:41:17;21.30;;;12.73;;
21601;SDS011;10963;50.934;4.668;2023-03-01T08:43:43;28.87;;;13.27;;
21601;SDS011;10963;50.934;4.668;2023-03-01T08:46:09;23.40;;;12.10;;
21601;SDS011;10963;50.934;4.668;2023-03-01T08:48:35;23.43;;;12.53;;
21601;SDS011;10963;50.934;4.668;2023-03-01T08:51:08;26.80;;;12.40;;
21601;SDS011;10963;50.934;4.668;2023-03-01T08:53:41;22.40;;;11.93;;
21601;SDS011;10963;50.934;4.668;2023-03-01T08:56:07;25.23;;;12.60;;
21601;SDS011;10963;50.934;4.668;2023-03-01T08:58:37;21.60;;;12.50;;
21601;SDS011;10963;50.934;4.668;2023-03-01T09:01:08;24.47;;;12.23;;
21601;SDS011;10963;50.934;4.668;2023-03-01T09:03:38;19.37;;;12.17;;
21601;SDS011;10963;50.934;4.668;2023-03-01T09:06:05;20.00;;;12.13;;
21601;SDS011;10963;50.934;4.668;2023-03-01T09:08:39;25.37;;;13.27;;
21601;SDS011;10963;50.934;4.668;2023-03-01T09:11:09;18.47;;;11.63;;
21601;SDS011;10963;50.934;4.668;2023-03-01T09:13:38;24.03;;;12.40;;
21601;SDS011;10963;50.934;4.668;2023-03-01T09:16:05;21.47;;;12.97;;
21601;SDS011;10963;50.934;4.668;2023-03-01T09:18:34;22.83;;;11.30;;
21601;SDS011;10963;50.934;4.668;2023-03-01T09:21:07;21.20;;;12.60;;
21601;SDS011;10963;50.934;4.668;2023-03-01T09:23:38;23.97;;;12.73;;
21601;SDS011;10963;50.934;4.668;2023-03-01T09:26:17;20.40;;;12.90;;
21601;SDS011;10963;50.934;4.668;2023-03-01T09:28:47;21.30;;;11.80;;
21601;SDS011;10963;50.934;4.668;2023-03-01T09:31:15;24.00;;;11.77;;
21601;SDS011;10963;50.934;4.668;2023-03-01T09:33:42;22.30;;;12.10;;
21601;SDS011;10963;50.934;4.668;2023-03-01T09:36:12;22.67;;;12.73;;
21601;SDS011;10963;50.934;4.668;2023-03-01T09:38:45;19.40;;;11.37;;
21601;SDS011;10963;50.934;4.668;2023-03-01T09:43:52;24.53;;;12.23;;
21601;SDS011;10963;50.934;4.668;2023-03-01T09:46:41;18.63;;;10.33;;
21601;SDS011;10963;50.934;4.668;2023-03-01T09:49:12;21.17;;;12.10;;
21601;SDS011;10963;50.934;4.668;2023-03-01T09:51:55;15.43;;;9.00;;
21601;SDS011;10963;50.934;4.668;2023-03-01T09:54:28;20.73;;;10.50;;
21601;SDS011;10963;50.934;4.668;2023-03-01T10:04:57;19.40;;;11.40;;
21601;SDS011;10963;50.934;4.668;2023-03-01T10:07:55;21.67;;;10.97;;
21601;SDS011;10963;50.934;4.668;2023-03-01T10:10:40;17.40;;;10.13;;
21601;SDS011;10963;50.934;4.668;2023-03-01T10:16:10;19.70;;;10.43;;
21601;SDS011;10963;50.934;4.668;2023-03-01T10:18:39;20.00;;;11.30;;
21601;SDS011;10963;50.934;4.668;2023-03-01T10:23:43;21.80;;;10.83;;
21601;SDS011;10963;50.934;4.668;2023-03-01T10:31:20;21.57;;;11.73;;
21601;SDS011;10963;50.934;4.668;2023-03-01T10:34:02;20.60;;;10.63;;
21601;SDS011;10963;50.934;4.668;2023-03-01T10:36:35;28.57;;;11.27;;
21601;SDS011;10963;50.934;4.668;2023-03-01T10:39:11;21.07;;;11.70;;
21601;SDS011;10963;50.934;4.668;2023-03-01T10:44:35;17.73;;;10.60;;
21601;SDS011;10963;50.934;4.668;2023-03-01T10:47:04;15.73;;;9.47;;
21601;SDS011;10963;50.934;4.668;2023-03-01T10:49:39;17.83;;;11.07;;
21601;SDS011;10963;50.934;4.668;2023-03-01T10:52:20;20.23;;;11.63;;
21601;SDS011;10963;50.934;4.668;2023-03-01T10:54:58;19.37;;;11.47;;
21601;SDS011;10963;50.934;4.668;2023-03-01T10:57:34;18.77;;;10.57;;
21601;SDS011;10963;50.934;4.668;2023-03-01T11:00:19;20.67;;;10.77;;
21601;SDS011;10963;50.934;4.668;2023-03-01T11:03:30;18.17;;;10.93;;
21601;SDS011;10963;50.934;4.668;2023-03-01T11:05:50;18.03;;;10.83;;
21601;SDS011;10963;50.934;4.668;2023-03-01T11:21:35;18.60;;;10.73;;
21601;SDS011;10963;50.934;4.668;2023-03-01T11:24:05;17.03;;;9.20;;
21601;SDS011;10963;50.934;4.668;2023-03-01T11:26:41;17.80;;;10.00;;
21601;SDS011;10963;50.934;4.668;2023-03-01T11:29:27;19.27;;;10.60;;
21601;SDS011;10963;50.934;4.668;2023-03-01T11:32:01;14.37;;;9.47;;
21601;SDS011;10963;50.934;4.668;2023-03-01T11:34:36;15.17;;;9.73;;
21601;SDS011;10963;50.934;4.668;2023-03-01T11:37:12;17.07;;;10.27;;
21601;SDS011;10963;50.934;4.668;2023-03-01T11:46:26;15.80;;;8.97;;
21601;SDS011;10963;50.934;4.668;2023-03-01T11:54:41;14.90;;;10.27;;
21601;SDS011;10963;50.934;4.668;2023-03-01T12:03:32;19.17;;;10.53;;
21601;SDS011;10963;50.934;4.668;2023-03-01T12:07:02;15.93;;;9.87;;
21601;SDS011;10963;50.934;4.668;2023-03-01T12:17:32;16.83;;;10.23;;
21601;SDS011;10963;50.934;4.668;2023-03-01T12:20:09;17.10;;;10.13;;
21601;SDS011;10963;50.934;4.668;2023-03-01T12:25:48;18.63;;;10.27;;
21601;SDS011;10963;50.934;4.668;2023-03-01T12:31:53;15.53;;;9.67;;
21601;SDS011;10963;50.934;4.668;2023-03-01T12:34:13;14.97;;;8.77;;
21601;SDS011;10963;50.934;4.668;2023-03-01T12:47:26;15.87;;;9.63;;
21601;SDS011;10963;50.934;4.668;2023-03-01T12:50:11;16.73;;;10.03;;
21601;SDS011;10963;50.934;4.668;2023-03-01T12:52:55;17.90;;;10.10;;
21601;SDS011;10963;50.934;4.668;2023-03-01T13:01:14;18.50;;;10.67;;
21601;SDS011;10963;50.934;4.668;2023-03-01T13:06:29;17.37;;;9.60;;
21601;SDS011;10963;50.934;4.668;2023-03-01T13:12:02;16.87;;;9.53;;
21601;SDS011;10963;50.934;4.668;2023-03-01T13:16:56;22.17;;;9.73;;
21601;SDS011;10963;50.934;4.668;2023-03-01T13:19:25;19.33;;;11.13;;
21601;SDS011;10963;50.934;4.668;2023-03-01T13:21:57;16.87;;;10.73;;
21601;SDS011;10963;50.934;4.668;2023-03-01T13:24:43;15.67;;;10.50;;
21601;SDS011;10963;50.934;4.668;2023-03-01T13:29:49;16.80;;;10.10;;
21601;SDS011;10963;50.934;4.668;2023-03-01T13:32:25;18.87;;;10.83;;
21601;SDS011;10963;50.934;4.668;2023-03-01T13:37:44;18.87;;;11.80;;
21601;SDS011;10963;50.934;4.668;2023-03-01T13:42:46;18.80;;;11.10;;
21601;SDS011;10963;50.934;4.668;2023-03-01T13:45:23;19.93;;;11.33;;
21601;SDS011;10963;50.934;4.668;2023-03-01T13:47:54;18.20;;;12.03;;
21601;SDS011;10963;50.934;4.668;2023-03-01T13:50:27;18.57;;;10.80;;
21601;SDS011;10963;50.934;4.668;2023-03-01T13:52:59;16.10;;;10.57;;
21601;SDS011;10963;50.934;4.668;2023-03-01T13:55:32;18.67;;;10.37;;
21601;SDS011;10963;50.934;4.668;2023-03-01T13:58:21;25.07;;;10.53;;
21601;SDS011;10963;50.934;4.668;2023-03-01T14:00:54;19.20;;;10.50;;
21601;SDS011;10963;50.934;4.668;2023-03-01T14:03:21;17.87;;;10.87;;
21601;SDS011;10963;50.934;4.668;2023-03-01T14:08:45;16.70;;;10.57;;
21601;SDS011;10963;50.934;4.668;2023-03-01T14:14:14;17.10;;;9.87;;
21601;SDS011;10963;50.934;4.668;2023-03-01T14:17:10;14.47;;;9.27;;
21601;SDS011;10963;50.934;4.668;2023-03-01T14:20:03;16.70;;;9.67;;
21601;SDS011;10963;50.934;4.668;2023-03-01T14:22:40;17.20;;;10.20;;
21601;SDS011;10963;50.934;4.668;2023-03-01T14:27:59;15.93;;;9.67;;
21601;SDS011;10963;50.934;4.668;2023-03-01T14:30:50;13.87;;;9.73;;
21601;SDS011;10963;50.934;4.668;2023-03-01T14:35:52;14.80;;;10.23;;
21601;SDS011;10963;50.934;4.668;2023-03-01T14:38:23;16.40;;;9.70;;
21601;SDS011;10963;50.934;4.668;2023-03-01T14:41:20;14.43;;;10.17;;
21601;SDS011;10963;50.934;4.668;2023-03-01T14:46:26;18.47;;;11.80;;
21601;SDS011;10963;50.934;4.668;2023-03-01T14:51:49;16.50;;;9.87;;
21601;SDS011;10963;50.934;4.668;2023-03-01T14:54:20;17.00;;;10.57;;
21601;SDS011;10963;50.934;4.668;2023-03-01T14:56:46;19.53;;;10.47;;
21601;SDS011;10963;50.934;4.668;2023-03-01T14:59:15;15.27;;;9.57;;
21601;SDS011;10963;50.934;4.668;2023-03-01T15:01:43;15.67;;;9.77;;
21601;SDS011;10963;50.934;4.668;2023-03-01T15:04:11;16.60;;;10.00;;
21601;SDS011;10963;50.934;4.668;2023-03-01T15:06:38;17.20;;;9.13;;
21601;SDS011;10963;50.934;4.668;2023-03-01T15:09:05;16.57;;;9.40;;
21601;SDS011;10963;50.934;4.668;2023-03-01T15:11:40;14.63;;;9.07;;
21601;SDS011;10963;50.934;4.668;2023-03-01T15:17:19;13.53;;;8.47;;
21601;SDS011;10963;50.934;4.668;2023-03-01T15:19:51;17.37;;;8.33;;
21601;SDS011;10963;50.934;4.668;2023-03-01T15:22:17;14.10;;;8.90;;
21601;SDS011;10963;50.934;4.668;2023-03-01T15:24:46;20.73;;;11.07;;
21601;SDS011;10963;50.934;4.668;2023-03-01T15:27:15;16.50;;;8.10;;
21601;SDS011;10963;50.934;4.668;2023-03-01T15:29:57;31.03;;;13.00;;
21601;SDS011;10963;50.934;4.668;2023-03-01T15:34:55;13.07;;;8.90;;
21601;SDS011;10963;50.934;4.668;2023-03-01T15:37:50;11.87;;;8.10;;
21601;SDS011;10963;50.934;4.668;2023-03-01T15:40:30;13.23;;;8.57;;
21601;SDS011;10963;50.934;4.668;2023-03-01T15:43:05;13.80;;;8.60;;
21601;SDS011;10963;50.934;4.668;2023-03-01T15:45:57;16.27;;;9.03;;
21601;SDS011;10963;50.934;4.668;2023-03-01T15:48:25;12.67;;;8.03;;
21601;SDS011;10963;50.934;4.668;2023-03-01T15:50:56;13.70;;;8.00;;
21601;SDS011;10963;50.934;4.668;2023-03-01T15:53:24;20.80;;;10.13;;
21601;SDS011;10963;50.934;4.668;2023-03-01T15:55:51;12.83;;;8.00;;
21601;SDS011;10963;50.934;4.668;2023-03-01T15:58:20;12.03;;;7.90;;
21601;SDS011;10963;50.934;4.668;2023-03-01T16:00:50;19.23;;;12.23;;
21601;SDS011;10963;50.934;4.668;2023-03-01T16:03:23;20.43;;;9.03;;
21601;SDS011;10963;50.934;4.668;2023-03-01T16:05:48;13.23;;;8.57;;
21601;SDS011;10963;50.934;4.668;2023-03-01T16:08:16;10.70;;;7.20;;
21601;SDS011;10963;50.934;4.668;2023-03-01T16:10:42;12.83;;;7.67;;
21601;SDS011;10963;50.934;4.668;2023-03-01T16:13:12;15.13;;;7.77;;
21601;SDS011;10963;50.934;4.668;2023-03-01T16:15:40;12.63;;;7.53;;
21601;SDS011;10963;50.934;4.668;2023-03-01T16:18:06;12.70;;;8.33;;
21601;SDS011;10963;50.934;4.668;2023-03-01T16:20:39;13.37;;;8.83;;
21601;SDS011;10963;50.934;4.668;2023-03-01T16:23:06;13.83;;;8.07;;
21601;SDS011;10963;50.934;4.668;2023-03-01T16:25:33;14.80;;;8.67;;
21601;SDS011;10963;50.934;4.668;2023-03-01T16:28:00;11.43;;;8.13;;
21601;SDS011;10963;50.934;4.668;2023-03-01T16:30:33;13.80;;;10.50;;
21601;SDS011;10963;50.934;4.668;2023-03-01T16:33:02;16.90;;;10.83;;
21601;SDS011;10963;50.934;4.668;2023-03-01T16:35:31;19.30;;;11.60;;
21601;SDS011;10963;50.934;4.668;2023-03-01T16:37:59;13.07;;;8.57;;
21601;SDS011;10963;50.934;4.668;2023-03-01T16:40:27;12.07;;;8.17;;
21601;SDS011;10963;50.934;4.668;2023-03-01T16:42:54;16.33;;;9.03;;
21601;SDS011;10963;50.934;4.668;2023-03-01T16:45:25;11.97;;;8.40;;
21601;SDS011;10963;50.934;4.668;2023-03-01T16:47:58;18.17;;;8.90;;
21601;SDS011;10963;50.934;4.668;2023-03-01T16:50:26;14.03;;;8.53;;
21601;SDS011;10963;50.934;4.668;2023-03-01T16:52:52;13.53;;;9.13;;
21601;SDS011;10963;50.934;4.668;2023-03-01T16:55:20;12.90;;;8.83;;
21601;SDS011;10963;50.934;4.668;2023-03-01T16:57:46;11.17;;;7.97;;
21601;SDS011;10963;50.934;4.668;2023-03-01T17:00:14;12.47;;;8.00;;
21601;SDS011;10963;50.934;4.668;2023-03-01T17:02:43;16.80;;;8.70;;
21601;SDS011;10963;50.934;4.668;2023-03-01T17:05:09;12.23;;;8.23;;
21601;SDS011;10963;50.934;4.668;2023-03-01T17:07:36;15.63;;;8.87;;
21601;SDS011;10963;50.934;4.668;2023-03-01T17:10:03;17.13;;;9.10;;
21601;SDS011;10963;50.934;4.668;2023-03-01T17:12:32;14.43;;;8.63;;
21601;SDS011;10963;50.934;4.668;2023-03-01T17:15:01;11.40;;;7.97;;